Manson, WA (98831)

3:52 AM PDT on September 05, 2015 (GMT -0700)
APRSWXNET | | Change Station
CLOSE
Current Station
Personal Weather Station
Location: Manson, WA
Elevation: 1282 ft
Nearby Weather Stations

Elev 1282 ft 47.92 °N, 120.18 °W | Updated 22 minutes ago

Mostly Cloudy
Mostly Cloudy
58 °F
Feels Like 58 °F
N
12
Wind Variable Wind from NNE
Gusts 25.0 mph

Today
High -- | Low -- °F
--% Chance of Precip.
Yesterday
High -- | Low -- °F
Precip. -- in
6:23 AM 7:33 PM
Waning Gibbous, 50% visible
Pressure 29.86 in
Visibility 10.0 miles
Clouds Overcast 9000 ft
Dew Point 40 °F
Humidity 52%
Rainfall in
Snow Depth Not available.
UV 0 out of 12
Pollen 3.90 out of 12
Air Quality Not available.
Flu Activity Not available.
METAR KEAT 050955Z AUTO 33014KT 10SM OVC090 14/03 A2987 RMK AO2 SLP110 T01440033
Pressure 29.86 in
Visibility 10.0 miles
Clouds Overcast 9000 ft
Dew Point 40 °F
Humidity 52%
Rainfall in
Snow Depth Not available.
UV 0 out of 12
Pollen 3.90 out of 12
Air Quality Not available.
Flu Activity Not available.
METAR KEAT 050955Z AUTO 33014KT 10SM OVC090 14/03 A2987 RMK AO2 SLP110 T01440033

10-Day Weather Forecast

×

Almanac

Astronomy

Sep. 05, 2015 Rise Set
Actual Time
Civil Twilight
Nautical Twilight
Astronomical Twilight
Moon
Length of Visible Light
Length of Day
Tomorrow will be .
, % of the Moon is Illuminated

Today's Extremes

State Highs State Lows

Community

WunderPhotos

Upload Photos

1,852,439 photos uploaded!

WunderBlogs® & News

Nearby

Air Quality

  Air Quality AQ Index Pollutant
Not available.

Snow Depth

Station Depth Elevation

Earthquake Activity

City Distance Mag. Time & Date
Minimum magnitude displayed is 2.5.

Coastal Water Temperatures

Place Temperature

Stations

Nearby Weather Stations

Station Location Temp. Windchill Dew Point Humidity Wind Precip. Elev Updated Type